Time;durP1;ratioP1;P1;durP2;ratioP2;P2;SDS_P1;SDS_P2;PMS_P1;PMS_P2;Temp;Humidity;BMP_temperature;BMP_pressure;BME280_temperature;BME280_humidity;BME280_pressure;Samples;Min_cycle;Max_cycle;Signal;HPM_P1;HPM_P2
2022/04/04 00:00:13;;;;;;;5.53;5.13;;;2.50;99.90;;;;;;5107712;28;20885;-87
2022/04/04 00:02:39;;;;;;;4.95;4.55;;;2.50;99.90;;;;;;5124833;28;20773;-87
2022/04/04 00:05:05;;;;;;;5.78;5.28;;;2.40;99.90;;;;;;5125284;28;20392;-86
2022/04/04 00:07:31;;;;;;;5.55;5.13;;;2.50;99.90;;;;;;5125774;28;20934;-87
2022/04/04 00:09:56;;;;;;;5.43;5.03;;;2.40;99.90;;;;;;5125570;28;20377;-87
2022/04/04 00:12:22;;;;;;;5.37;4.97;;;2.40;99.90;;;;;;5124795;28;20720;-87
2022/04/04 00:14:49;;;;;;;5.73;5.33;;;2.30;99.90;;;;;;5124725;28;20394;-87
2022/04/04 00:17:14;;;;;;;5.78;5.28;;;2.50;99.90;;;;;;5125708;28;20421;-87
2022/04/04 00:19:41;;;;;;;5.72;5.22;;;2.20;99.90;;;;;;5126007;28;20384;-87
2022/04/04 00:22:07;;;;;;;5.85;5.35;;;2.20;99.90;;;;;;5110961;28;20446;-87
2022/04/04 00:24:33;;;;;;;6.03;5.53;;;2.20;99.90;;;;;;5106974;28;20899;-87
2022/04/04 00:26:58;;;;;;;5.55;5.15;;;2.50;99.90;;;;;;5124100;28;20387;-87
2022/04/04 00:29:25;;;;;;;5.82;5.38;;;2.10;99.90;;;;;;5115988;28;20402;-87
2022/04/04 00:31:51;;;;;;;6.35;5.85;;;2.20;99.90;;;;;;5108801;28;20406;-86
2022/04/04 00:34:17;;;;;;;5.65;5.22;;;2.10;99.90;;;;;;5108614;28;20392;-87
2022/04/04 00:36:43;;;;;;;6.40;5.35;;;2.20;99.90;;;;;;5127164;28;20403;-86
2022/04/04 00:39:10;;;;;;;5.33;4.93;;;2.10;99.90;;;;;;5126911;28;20430;-87
2022/04/04 00:41:36;;;;;;;6.10;5.60;;;2.10;99.90;;;;;;5127146;28;20471;-87
2022/04/04 00:44:02;;;;;;;5.70;5.20;;;2.10;99.90;;;;;;5111927;28;20400;-87
2022/04/04 00:46:28;;;;;;;5.80;5.30;;;2.10;99.90;;;;;;5113550;28;20429;-87
2022/04/04 00:48:54;;;;;;;5.93;5.43;;;2.10;99.90;;;;;;5130800;28;20447;-87
2022/04/04 00:51:19;;;;;;;5.97;5.47;;;2.20;99.90;;;;;;5129303;28;20408;-87
2022/04/04 00:53:45;;;;;;;6.20;5.70;;;2.30;99.90;;;;;;5128809;28;20384;-87
2022/04/04 00:56:12;;;;;;;6.35;5.85;;;2.10;99.90;;;;;;5129730;28;20391;-87
2022/04/04 00:58:38;;;;;;;6.45;5.85;;;2.20;99.90;;;;;;5129129;28;20388;-87
2022/04/04 01:01:05;;;;;;;6.15;5.55;;;2.10;99.90;;;;;;5130138;28;20380;-87
2022/04/04 01:03:31;;;;;;;5.97;5.43;;;2.10;99.90;;;;;;5110743;28;20400;-87
2022/04/04 01:05:58;;;;;;;5.77;5.27;;;2.00;99.90;;;;;;5129639;28;20447;-87
2022/04/04 01:08:24;;;;;;;6.43;5.82;;;3.00;99.90;;;;;;5109691;28;20387;-87
2022/04/04 01:10:50;;;;;;;5.93;5.22;;;1.90;99.90;;;;;;5109463;28;20785;-86
2022/04/04 01:13:16;;;;;;;5.55;5.13;;;1.90;99.90;;;;;;5127781;28;20372;-87
2022/04/04 01:15:42;;;;;;;6.03;5.53;;;1.90;99.90;;;;;;5127990;28;20364;-86
2022/04/04 01:18:08;;;;;;;5.63;5.17;;;2.00;99.90;;;;;;5128730;28;20726;-86
2022/04/04 01:20:35;;;;;;;6.28;5.68;;;2.00;99.90;;;;;;5110369;28;20467;-86
2022/04/04 01:23:01;;;;;;;6.03;5.63;;;1.90;99.90;;;;;;5127019;28;20379;-86
2022/04/04 01:25:29;;;;;;;5.82;5.32;;;1.90;99.90;;;;;;5119138;28;20914;-87
2022/04/04 01:27:55;;;;;;;6.00;5.50;;;1.80;99.90;;;;;;5110011;28;20395;-87
2022/04/04 01:30:22;;;;;;;6.57;6.07;;;1.80;99.90;;;;;;5127631;28;20506;-86
2022/04/04 01:32:49;;;;;;;5.90;5.40;;;1.80;99.90;;;;;;5127059;28;20384;-86
2022/04/04 01:35:19;;;;;;;6.00;5.50;;;3.20;99.90;;;;;;5108384;28;20477;-87
2022/04/04 01:37:46;;;;;;;5.47;5.00;;;1.60;99.90;;;;;;5127848;28;20384;-86
2022/04/04 01:40:12;;;;;;;6.25;5.68;;;1.60;99.90;;;;;;5127579;28;20404;-86
2022/04/04 01:42:39;;;;;;;6.38;5.88;;;1.40;99.90;;;;;;5127160;28;20391;-86
2022/04/04 01:45:09;;;;;;;7.28;6.07;;;2.10;99.90;;;;;;5105886;28;20400;-86
2022/04/04 01:47:36;;;;;;;6.47;5.97;;;1.40;99.90;;;;;;5127404;28;20381;-86
2022/04/04 01:50:03;;;;;;;7.03;6.43;;;1.50;99.90;;;;;;5127553;28;20372;-86
2022/04/04 01:52:28;;;;;;;6.78;6.28;;;1.50;99.90;;;;;;5129918;27;20739;-87
2022/04/04 01:54:54;;;;;;;6.40;5.90;;;1.50;99.90;;;;;;5126598;28;20395;-86
2022/04/04 01:57:20;;;;;;;6.63;6.05;;;2.00;99.90;;;;;;5108574;28;20388;-86
2022/04/04 01:59:45;;;;;;;6.90;6.40;;;1.60;99.90;;;;;;5127026;28;20384;-87
2022/04/04 02:02:11;;;;;;;6.87;6.23;;;1.50;99.90;;;;;;5125792;28;20376;-86
2022/04/04 02:04:37;;;;;;;6.13;5.53;;;1.50;99.90;;;;;;5121872;28;22388;-87
2022/04/04 02:07:05;;;;;;;6.57;5.97;;;1.90;99.90;;;;;;5106137;28;21100;-87
2022/04/04 02:09:31;;;;;;;6.40;5.90;;;1.70;99.90;;;;;;5104695;28;20377;-86
2022/04/04 02:11:57;;;;;;;6.88;6.28;;;1.60;99.90;;;;;;5123810;28;20429;-87
2022/04/04 02:14:23;;;;;;;6.50;6.00;;;1.50;99.90;;;;;;5125675;28;20822;-86
2022/04/04 02:16:49;;;;;;;6.93;6.25;;;1.60;99.90;;;;;;5125825;28;20807;-86
2022/04/04 02:19:16;;;;;;;6.60;6.00;;;1.30;99.90;;;;;;5106490;28;20785;-87
2022/04/04 02:21:42;;;;;;;6.88;6.28;;;1.30;99.90;;;;;;5124616;28;20387;-87
2022/04/04 02:24:07;;;;;;;6.50;5.90;;;1.10;99.90;;;;;;5106102;28;20465;-87
2022/04/04 02:26:33;;;;;;;6.93;6.32;;;1.10;99.90;;;;;;5124447;28;20404;-87
2022/04/04 02:28:59;;;;;;;7.17;6.63;;;1.10;99.90;;;;;;5106493;28;20399;-87
2022/04/04 02:31:24;;;;;;;7.20;6.70;;;1.20;99.90;;;;;;5125057;28;20457;-87
2022/04/04 02:33:52;;;;;;;7.53;6.93;;;1.20;99.90;;;;;;5125162;28;20385;-87
2022/04/04 02:36:18;;;;;;;7.47;6.78;;;1.30;99.90;;;;;;5119543;28;20392;-87
2022/04/04 02:38:44;;;;;;;8.10;7.40;;;1.20;99.90;;;;;;5125571;28;20376;-87
2022/04/04 02:41:09;;;;;;;7.72;7.10;;;1.80;99.90;;;;;;5125626;28;20384;-87
2022/04/04 02:43:35;;;;;;;8.40;7.70;;;1.10;99.90;;;;;;5124167;28;20403;-87
2022/04/04 02:46:01;;;;;;;7.97;7.30;;;0.80;99.90;;;;;;5105342;28;20439;-87
2022/04/04 02:48:27;;;;;;;7.13;6.53;;;1.40;99.90;;;;;;5105324;28;20420;-88
2022/04/04 02:50:53;;;;;;;7.40;6.63;;;1.40;99.90;;;;;;5103849;28;20380;-88
2022/04/04 02:53:18;;;;;;;7.47;6.78;;;1.40;99.90;;;;;;5124512;28;20376;-88
2022/04/04 02:58:28;;;;;;;7.75;7.13;;;1.30;99.90;;;;;;5123981;28;20371;-88
2022/04/04 03:00:54;;;;;;;7.90;7.20;;;1.10;99.90;;;;;;5124714;28;20380;-87
2022/04/04 03:03:20;;;;;;;7.83;7.20;;;1.20;99.90;;;;;;5125223;28;20376;-87
2022/04/04 03:05:46;;;;;;;8.00;7.30;;;1.00;99.90;;;;;;5126111;28;20377;-87
2022/04/04 03:08:12;;;;;;;7.22;6.57;;;1.20;99.90;;;;;;5124592;28;20747;-88
2022/04/04 03:10:38;;;;;;;7.68;6.97;;;1.20;99.90;;;;;;5124296;28;20380;-88
2022/04/04 03:13:05;;;;;;;7.70;7.10;;;1.20;99.90;;;;;;5136661;27;20381;-87
2022/04/04 03:15:34;;;;;;;8.10;7.40;;;1.20;99.90;;;;;;5125282;28;20387;-88
2022/04/04 03:18:00;;;;;;;8.00;7.20;;;1.00;99.90;;;;;;5124729;28;20384;-87
2022/04/04 03:20:26;;;;;;;8.27;7.68;;;0.90;99.90;;;;;;5106226;28;20415;-88
2022/04/04 03:22:55;;;;;;;8.93;8.13;;;0.90;99.90;;;;;;5122356;28;20385;-88
2022/04/04 03:25:21;;;;;;;9.15;8.45;;;0.90;99.90;;;;;;5123308;28;20407;-85
2022/04/04 03:27:48;;;;;;;9.60;8.80;;;1.00;99.90;;;;;;5124750;28;20380;-86
2022/04/04 03:30:18;;;;;;;9.27;8.48;;;1.10;99.90;;;;;;5107082;28;20408;-88
2022/04/04 03:32:45;;;;;;;9.90;9.00;;;0.90;99.90;;;;;;5124821;28;20782;-86
2022/04/04 03:35:14;;;;;;;8.70;8.00;;;0.90;99.90;;;;;;5124825;28;20460;-86
2022/04/04 03:37:41;;;;;;;9.13;8.43;;;0.90;99.90;;;;;;5114626;28;20471;-88
2022/04/04 03:40:09;;;;;;;9.38;8.57;;;0.90;99.90;;;;;;5123891;28;20384;-88
2022/04/04 03:42:37;;;;;;;8.80;8.02;;;0.90;99.90;;;;;;5106262;28;20463;-89
2022/04/04 03:45:04;;;;;;;9.63;8.73;;;0.90;99.90;;;;;;5124722;28;20411;-88
2022/04/04 03:47:30;;;;;;;9.63;8.82;;;1.00;99.90;;;;;;5124650;28;20388;-88
2022/04/04 03:49:56;;;;;;;10.27;9.25;;;0.90;99.90;;;;;;5124724;28;20443;-88
2022/04/04 03:52:22;;;;;;;9.45;8.73;;;1.10;99.90;;;;;;5124914;28;20383;-88
2022/04/04 03:54:48;;;;;;;9.23;8.52;;;1.10;99.90;;;;;;5104717;28;20397;-88
2022/04/04 03:57:14;;;;;;;9.97;9.07;;;1.20;99.90;;;;;;5115624;28;20747;-88
2022/04/04 03:59:39;;;;;;;9.93;9.13;;;0.90;99.90;;;;;;5123848;28;20384;-86
2022/04/04 04:02:05;;;;;;;9.73;8.82;;;0.90;99.90;;;;;;5124440;28;20393;-88
2022/04/04 04:04:31;;;;;;;9.55;8.75;;;0.90;99.90;;;;;;5106284;28;20435;-88
2022/04/04 04:06:56;;;;;;;9.37;8.57;;;0.80;99.90;;;;;;5124878;28;20385;-88
2022/04/04 04:09:22;;;;;;;9.37;8.67;;;0.80;99.90;;;;;;5106627;28;20391;-88
2022/04/04 04:11:48;;;;;;;10.10;9.20;;;1.00;99.90;;;;;;5124794;28;20399;-86
2022/04/04 04:14:14;;;;;;;9.57;8.77;;;0.70;99.90;;;;;;5106509;28;20388;-88
2022/04/04 04:16:40;;;;;;;9.80;9.00;;;0.70;99.90;;;;;;5124935;28;20504;-88
2022/04/04 04:20:19;;;;;;;9.77;8.95;;;0.70;99.90;;;;;;5124810;28;20381;-87
2022/04/04 04:21:51;;;;;;;9.48;8.68;;;1.00;99.90;;;;;;5124273;28;20452;-88
2022/04/04 04:24:17;;;;;;;9.95;9.15;;;1.30;99.90;;;;;;5123982;28;20483;-88
2022/04/04 04:26:43;;;;;;;9.35;8.65;;;0.90;99.90;;;;;;5119864;28;20483;-88
2022/04/04 04:29:09;;;;;;;9.48;8.68;;;1.40;99.90;;;;;;5125024;28;20399;-88
2022/04/04 04:31:34;;;;;;;10.50;8.85;;;0.80;99.90;;;;;;5114192;28;20409;-88
2022/04/04 04:34:03;;;;;;;9.65;8.75;;;0.80;99.90;;;;;;5106159;28;20391;-88
2022/04/04 04:36:29;;;;;;;9.73;8.93;;;0.80;99.90;;;;;;5105373;28;20376;-88
2022/04/04 04:38:54;;;;;;;10.10;9.20;;;0.70;99.90;;;;;;5121533;28;20392;-89
2022/04/04 04:41:20;;;;;;;10.10;9.20;;;0.60;99.90;;;;;;5125370;28;20747;-88
2022/04/04 04:43:46;;;;;;;10.05;9.15;;;0.70;99.90;;;;;;5106116;28;20907;-89
2022/04/04 04:46:11;;;;;;;10.05;9.25;;;0.60;99.90;;;;;;5124475;28;20380;-88
2022/04/04 04:48:37;;;;;;;9.75;8.95;;;0.70;99.90;;;;;;5124795;28;20528;-88
2022/04/04 04:51:03;;;;;;;10.13;9.07;;;0.80;99.90;;;;;;5125792;28;20464;-88
2022/04/04 04:53:28;;;;;;;9.83;8.93;;;1.60;99.90;;;;;;5124697;28;20384;-88
2022/04/04 04:55:54;;;;;;;9.70;8.80;;;0.60;99.90;;;;;;5107530;28;20457;-89
2022/04/04 04:58:20;;;;;;;9.65;8.75;;;0.60;99.90;;;;;;5126615;28;20382;-88
2022/04/04 05:00:45;;;;;;;10.17;9.17;;;0.60;99.90;;;;;;5107922;28;20416;-88
2022/04/04 05:03:26;;;;;;;9.30;8.47;;;0.60;99.90;;;;;;5124956;28;20372;-88
2022/04/04 05:05:53;;;;;;;10.10;9.20;;;0.90;99.90;;;;;;5132874;28;20755;-88
2022/04/04 05:08:19;;;;;;;10.02;9.13;;;0.60;99.90;;;;;;5107475;28;20387;-88
2022/04/04 05:10:45;;;;;;;10.23;9.32;;;0.60;99.90;;;;;;5108196;28;20429;-88
2022/04/04 05:13:11;;;;;;;9.48;8.68;;;0.60;99.90;;;;;;5105276;28;20397;-88
2022/04/04 05:15:37;;;;;;;10.45;9.55;;;0.60;99.90;;;;;;5126162;28;20452;-88
2022/04/04 05:18:03;;;;;;;10.25;9.30;;;0.50;99.90;;;;;;5126476;28;20384;-88
2022/04/04 05:20:29;;;;;;;10.02;9.13;;;0.40;99.90;;;;;;5124358;28;20395;-88
2022/04/04 05:22:55;;;;;;;10.20;9.38;;;0.40;99.90;;;;;;5125914;28;20364;-88
2022/04/04 05:25:21;;;;;;;9.60;8.70;;;0.40;99.90;;;;;;5124703;28;20827;-87
2022/04/04 05:27:46;;;;;;;10.27;9.27;;;0.50;99.90;;;;;;5130985;28;20377;-87
2022/04/04 05:30:12;;;;;;;10.37;9.47;;;0.40;99.90;;;;;;5125742;28;20383;-88
2022/04/04 05:32:38;;;;;;;10.32;9.43;;;0.20;99.90;;;;;;5139134;27;20384;-88
2022/04/04 05:35:06;;;;;;;10.25;9.35;;;1.20;99.90;;;;;;5129764;28;20376;-87
2022/04/04 05:37:35;;;;;;;10.35;9.00;;;0.60;99.90;;;;;;5111165;28;20388;-87
2022/04/04 05:40:03;;;;;;;9.70;8.80;;;0.50;99.90;;;;;;5113326;28;20850;-88
2022/04/04 05:42:30;;;;;;;10.55;9.48;;;1.70;99.90;;;;;;5130675;28;20420;-88
2022/04/04 05:44:56;;;;;;;10.57;9.55;;;0.50;99.90;;;;;;5129720;28;20487;-87
2022/04/04 05:47:22;;;;;;;10.90;9.93;;;0.60;99.90;;;;;;5128936;28;20377;-89
2022/04/04 05:49:50;;;;;;;10.25;9.35;;;0.30;99.90;;;;;;5125709;28;20388;-88
2022/04/04 05:52:17;;;;;;;11.30;10.20;;;0.10;99.90;;;;;;5128115;28;20820;-87
2022/04/04 05:54:57;;;;;;;12.25;10.38;;;1.50;99.90;;;;;;5126842;28;20422;-88
2022/04/04 05:57:36;;;;;;;11.07;9.93;;;1.10;99.90;;;;;;5128345;27;20380;-88
2022/04/04 06:00:08;;;;;;;10.77;9.80;;;0.70;99.90;;;;;;5114913;28;20388;-88
2022/04/04 06:02:37;;;;;;;9.93;9.13;;;0.60;99.90;;;;;;5107177;28;20393;-88
2022/04/04 06:05:04;;;;;;;10.63;9.63;;;0.50;99.90;;;;;;5122250;28;20737;-88
2022/04/04 06:07:29;;;;;;;10.73;9.75;;;0.50;99.90;;;;;;5117913;28;20388;-89
2022/04/04 06:09:55;;;;;;;10.77;9.77;;;0.50;99.90;;;;;;5136410;27;20417;-89
2022/04/04 06:12:21;;;;;;;10.07;9.00;;;0.80;99.90;;;;;;5129083;28;20388;-88
2022/04/04 06:14:47;;;;;;;10.38;9.38;;;1.50;99.90;;;;;;5119430;28;20379;-88
2022/04/04 06:17:12;;;;;;;10.40;9.50;;;1.30;99.90;;;;;;5128028;28;20389;-89
2022/04/04 06:19:38;;;;;;;11.53;10.43;;;1.30;99.90;;;;;;5128218;28;20436;-89
2022/04/04 06:22:04;;;;;;;11.20;10.00;;;0.70;99.90;;;;;;5137594;27;20389;-88
2022/04/04 06:24:31;;;;;;;10.93;9.98;;;0.30;99.90;;;;;;5127890;28;20396;-88
2022/04/04 06:27:05;;;;;;;10.80;9.90;;;0.40;99.90;;;;;;5127670;28;20381;-89
2022/04/04 06:29:31;;;;;;;10.30;9.40;;;0.50;99.90;;;;;;5109121;28;20781;-88
2022/04/04 06:31:58;;;;;;;10.90;9.90;;;1.70;99.90;;;;;;5110348;28;20397;-88
2022/04/04 06:34:27;;;;;;;10.40;9.33;;;-0.50;99.90;;;;;;5127286;27;20384;-89
2022/04/04 06:36:53;;;;;;;13.68;9.88;;;1.20;99.90;;;;;;5103115;27;20599;-88
2022/04/04 06:39:21;;;;;;;9.63;8.85;;;0.60;99.90;;;;;;5134593;27;21157;-89
2022/04/04 06:41:47;;;;;;;9.77;8.90;;;1.90;99.90;;;;;;5105812;27;20417;-89
2022/04/04 06:44:13;;;;;;;9.60;8.70;;;1.60;99.90;;;;;;5118436;27;20415;-89
2022/04/04 06:46:39;;;;;;;10.10;9.23;;;2.30;99.90;;;;;;5121602;27;20387;-89
2022/04/04 06:49:09;;;;;;;10.15;9.25;;;1.10;99.90;;;;;;5133736;27;20407;-89
2022/04/04 06:51:38;;;;;;;10.10;9.20;;;2.20;99.90;;;;;;5127453;27;20424;-89
2022/04/04 06:54:05;;;;;;;10.57;9.67;;;1.40;99.90;;;;;;5097668;28;20516;-88
2022/04/04 06:56:34;;;;;;;10.77;9.77;;;1.60;99.90;;;;;;5110104;28;20392;-89
2022/04/04 06:59:01;;;;;;;10.85;9.82;;;2.00;99.90;;;;;;5118321;27;20417;-88
2022/04/04 07:01:27;;;;;;;11.50;10.30;;;1.40;99.90;;;;;;5103352;28;20754;-88
2022/04/04 07:03:53;;;;;;;11.85;10.68;;;1.90;99.90;;;;;;5106552;28;20409;-88
2022/04/04 07:06:22;;;;;;;15.73;12.10;;;1.40;99.90;;;;;;5110901;28;20849;-88
2022/04/04 07:08:47;;;;;;;18.43;12.83;;;2.00;99.90;;;;;;5109639;28;20457;-87
2022/04/04 07:11:13;;;;;;;21.25;13.77;;;2.20;99.90;;;;;;5119394;28;20406;-88
2022/04/04 07:13:39;;;;;;;19.70;13.30;;;2.80;99.90;;;;;;5112136;28;20518;-88
2022/04/04 07:16:05;;;;;;;25.13;19.33;;;1.40;99.90;;;;;;5108972;28;20468;-87
2022/04/04 07:18:31;;;;;;;17.92;13.80;;;1.40;99.90;;;;;;5117747;28;20384;-87
2022/04/04 07:20:56;;;;;;;20.10;14.48;;;1.60;99.90;;;;;;5112769;28;20399;-87
2022/04/04 07:23:22;;;;;;;18.05;14.68;;;1.80;99.90;;;;;;5129169;28;20381;-87
2022/04/04 07:25:48;;;;;;;14.10;12.23;;;1.70;99.90;;;;;;5109548;28;20444;-87
2022/04/04 07:28:14;;;;;;;13.82;11.20;;;1.30;99.90;;;;;;5131029;28;20848;-87
2022/04/04 07:30:40;;;;;;;14.98;10.57;;;2.50;99.90;;;;;;5129724;28;20376;-87
2022/04/04 07:33:09;;;;;;;10.35;9.35;;;1.20;99.90;;;;;;5130771;28;20399;-87
2022/04/04 07:35:34;;;;;;;9.43;8.45;;;1.40;99.90;;;;;;5090785;28;20461;-87
2022/04/04 07:38:00;;;;;;;8.98;8.18;;;1.30;99.90;;;;;;5119083;28;20385;-88
2022/04/04 07:40:27;;;;;;;7.82;7.18;;;1.40;99.90;;;;;;5127937;28;20385;-87
2022/04/04 07:42:53;;;;;;;7.65;7.05;;;1.30;99.90;;;;;;5127943;28;20923;-87
2022/04/04 07:45:20;;;;;;;12.07;10.88;;;1.70;99.90;;;;;;5126092;28;20431;-87
2022/04/04 07:47:46;;;;;;;8.40;7.70;;;1.70;99.90;;;;;;5109501;28;20449;-87
2022/04/04 07:50:14;;;;;;;8.55;7.85;;;1.90;99.90;;;;;;5127056;28;20379;-87
2022/04/04 07:52:41;;;;;;;8.30;7.60;;;1.80;99.90;;;;;;5108974;28;20428;-88
2022/04/04 07:55:08;;;;;;;8.50;7.70;;;1.70;99.90;;;;;;5108533;28;20446;-87
2022/04/04 07:57:34;;;;;;;8.75;8.05;;;1.60;99.90;;;;;;5124973;28;20878;-86
2022/04/04 08:00:00;;;;;;;8.33;7.67;;;1.60;99.90;;;;;;5133236;27;20384;-85
2022/04/04 08:03:07;;;;;;;8.40;7.70;;;1.60;99.90;;;;;;5139407;27;20400;-84
2022/04/04 08:06:05;;;;;;;7.97;7.28;;;1.80;99.90;;;;;;5020171;28;20494;-84
2022/04/04 08:12:29;;;;;;;8.27;7.53;;;2.10;99.90;;;;;;5042146;28;20736;-82
2022/04/04 08:15:44;;;;;;;8.65;7.85;;;2.20;99.90;;;;;;5028043;28;20447;-82
2022/04/04 08:22:12;;;;;;;8.20;7.50;;;2.30;99.90;;;;;;5109598;28;20383;-84
2022/04/04 08:24:41;;;;;;;7.55;6.85;;;2.20;99.90;;;;;;5112029;28;20459;-85
2022/04/04 08:27:09;;;;;;;7.35;6.75;;;2.20;99.90;;;;;;5123217;28;20422;-87
2022/04/04 08:30:04;;;;;;;8.20;7.50;;;2.20;99.90;;;;;;5125408;28;20380;-85
2022/04/04 08:32:58;;;;;;;9.52;8.57;;;2.40;99.90;;;;;;5124125;28;20384;-86
2022/04/04 08:35:36;;;;;;;8.70;7.90;;;1.90;99.90;;;;;;5135856;28;20427;-84
2022/04/04 08:38:02;;;;;;;7.50;6.70;;;2.60;99.90;;;;;;5116760;28;20524;-85
2022/04/04 08:40:30;;;;;;;6.50;5.90;;;2.50;99.90;;;;;;5106048;28;20380;-86
2022/04/04 08:43:03;;;;;;;6.78;6.20;;;2.70;99.90;;;;;;5108175;28;20399;-84
2022/04/04 08:52:30;;;;;;;7.70;7.10;;;3.00;99.90;;;;;;5108044;28;20444;-83
2022/04/04 08:54:59;;;;;;;7.28;6.68;;;3.70;99.90;;;;;;5077714;28;20539;-84
2022/04/04 08:57:39;;;;;;;7.97;7.28;;;3.10;99.90;;;;;;5108178;28;20424;-83
2022/04/04 09:00:05;;;;;;;7.53;6.95;;;3.10;99.90;;;;;;5123001;28;20447;-85
2022/04/04 09:02:32;;;;;;;7.88;7.20;;;3.10;99.90;;;;;;5104327;28;20389;-84
2022/04/04 09:05:06;;;;;;;7.70;7.10;;;4.00;99.90;;;;;;5124242;28;20762;-86
2022/04/04 09:07:32;;;;;;;8.17;7.47;;;3.10;99.90;;;;;;5125424;28;20486;-85
2022/04/04 09:10:00;;;;;;;8.30;7.60;;;3.30;99.90;;;;;;5093545;27;20415;-85
2022/04/04 09:12:26;;;;;;;8.45;7.57;;;3.30;99.90;;;;;;5100840;28;20407;-84
2022/04/04 09:14:54;;;;;;;8.10;7.28;;;3.30;99.90;;;;;;5100895;28;20406;-83
2022/04/04 09:17:32;;;;;;;8.07;7.43;;;3.40;99.90;;;;;;5105138;28;20384;-85
2022/04/04 09:20:03;;;;;;;7.88;7.15;;;3.60;99.90;;;;;;5112472;27;20827;-85
2022/04/04 09:22:31;;;;;;;7.65;6.85;;;3.80;99.90;;;;;;5111741;28;20435;-86
2022/04/04 09:24:59;;;;;;;7.18;6.47;;;3.70;99.90;;;;;;5104038;28;20407;-84
2022/04/04 09:27:41;;;;;;;8.05;7.25;;;4.00;99.90;;;;;;5105141;28;20794;-83
2022/04/04 09:30:08;;;;;;;7.45;6.85;;;4.10;99.90;;;;;;5103109;28;20393;-85
2022/04/04 09:32:45;;;;;;;7.53;6.93;;;4.00;99.90;;;;;;5104494;28;20379;-84
2022/04/04 09:35:16;;;;;;;7.53;6.93;;;3.80;99.90;;;;;;5123509;28;20434;-83
2022/04/04 09:37:48;;;;;;;7.93;7.23;;;3.80;99.90;;;;;;5122778;28;20484;-82
2022/04/04 09:40:25;;;;;;;7.90;7.30;;;4.00;99.90;;;;;;5122046;28;20506;-85
2022/04/04 09:42:53;;;;;;;7.85;7.15;;;4.30;99.90;;;;;;5106658;28;20391;-84
2022/04/04 09:45:24;;;;;;;8.27;7.60;;;4.20;99.90;;;;;;5120252;28;20765;-84
2022/04/04 09:47:55;;;;;;;8.00;7.38;;;4.20;99.90;;;;;;5097972;28;20382;-83
2022/04/04 09:50:50;;;;;;;8.55;7.85;;;4.10;99.90;;;;;;5123687;27;20411;-84
2022/04/04 09:53:19;;;;;;;9.73;7.93;;;4.40;99.90;;;;;;5116631;22;20434;-84
2022/04/04 09:55:55;;;;;;;8.52;7.72;;;4.40;99.90;;;;;;5102786;28;20454;-87
2022/04/04 09:58:23;;;;;;;8.70;8.00;;;4.70;99.90;;;;;;5113999;28;20430;-85
2022/04/04 10:00:52;;;;;;;8.35;7.65;;;4.60;99.90;;;;;;5087940;28;20478;-86
2022/04/04 10:03:18;;;;;;;8.63;7.90;;;4.40;99.90;;;;;;5085332;28;20776;-86
2022/04/04 10:05:49;;;;;;;8.15;7.45;;;4.60;99.90;;;;;;5104851;28;20397;-85
2022/04/04 10:08:20;;;;;;;7.88;7.22;;;4.30;99.90;;;;;;5103634;28;20462;-86
2022/04/04 10:10:47;;;;;;;8.27;7.57;;;4.10;99.90;;;;;;5089337;28;20955;-85
2022/04/04 10:13:14;;;;;;;8.27;7.63;;;4.10;99.90;;;;;;5107037;28;20389;-84
2022/04/04 10:15:40;;;;;;;8.30;7.60;;;4.50;99.90;;;;;;5105910;28;20908;-85
2022/04/04 10:18:06;;;;;;;7.60;6.90;;;4.70;99.90;;;;;;5088902;28;20389;-86
2022/04/04 10:20:33;;;;;;;7.90;7.20;;;5.00;99.90;;;;;;5113733;28;20388;-85
2022/04/04 10:23:00;;;;;;;7.50;6.90;;;5.30;99.90;;;;;;5096199;28;20382;-85
2022/04/04 10:25:28;;;;;;;7.38;6.78;;;5.50;99.90;;;;;;5105522;28;20420;-86
2022/04/04 10:27:55;;;;;;;8.05;7.25;;;5.60;99.90;;;;;;5106074;28;20417;-85
2022/04/04 10:30:41;;;;;;;8.82;8.13;;;5.30;99.90;;;;;;5110101;28;20501;-85
2022/04/04 10:33:19;;;;;;;8.23;7.53;;;5.50;99.90;;;;;;5099647;28;20386;-86
2022/04/04 10:36:05;;;;;;;8.00;7.30;;;5.80;99.90;;;;;;5096922;28;20391;-86
2022/04/04 10:38:51;;;;;;;7.85;7.15;;;6.00;99.90;;;;;;5119975;28;20838;-86
2022/04/04 10:41:19;;;;;;;8.20;7.55;;;6.50;99.90;;;;;;5105725;28;20393;-85
2022/04/04 10:43:47;;;;;;;8.32;7.60;;;6.30;99.90;;;;;;5108541;28;20410;-87
2022/04/04 10:46:14;;;;;;;7.70;7.10;;;6.30;99.90;;;;;;5092610;28;20750;-85
2022/04/04 10:48:42;;;;;;;7.80;7.10;;;6.40;99.90;;;;;;5111489;28;20387;-86
2022/04/04 10:51:17;;;;;;;7.78;7.18;;;6.50;99.90;;;;;;5102814;28;20386;-86
2022/04/04 10:53:49;;;;;;;8.25;7.55;;;6.50;99.90;;;;;;5103260;28;20454;-85
2022/04/04 10:56:20;;;;;;;8.15;7.55;;;6.90;99.90;;;;;;5104414;28;20386;-86
2022/04/04 10:58:46;;;;;;;7.53;6.93;;;7.20;99.90;;;;;;5114295;28;20390;-86
2022/04/04 11:01:16;;;;;;;7.78;7.18;;;7.20;99.90;;;;;;5111406;28;20385;-85
2022/04/04 11:03:56;;;;;;;7.43;6.90;;;7.10;99.90;;;;;;5116875;28;20405;-86
2022/04/04 11:09:32;;;;;;;8.18;7.57;;;7.10;99.90;;;;;;5098651;28;20742;-87
2022/04/04 11:12:08;;;;;;;8.10;7.40;;;7.20;99.90;;;;;;5084206;28;20885;-86
2022/04/04 11:14:41;;;;;;;8.68;8.05;;;7.50;99.90;;;;;;5104816;28;20413;-86
2022/04/04 11:20:00;;;;;;;7.93;7.32;;;7.70;99.90;;;;;;5098757;28;20428;-86
2022/04/04 11:22:33;;;;;;;8.10;7.50;;;7.60;99.90;;;;;;5100652;28;20386;-85
2022/04/04 11:25:07;;;;;;;8.10;7.43;;;7.50;99.90;;;;;;5099619;28;20402;-87
2022/04/04 11:27:37;;;;;;;8.10;7.50;;;7.70;99.90;;;;;;5099593;28;20404;-87
2022/04/04 11:30:06;;;;;;;8.20;7.60;;;8.10;99.90;;;;;;5089159;28;20892;-85
2022/04/04 11:32:34;;;;;;;8.55;7.70;;;8.00;99.90;;;;;;5104712;28;20381;-85
2022/04/04 11:35:09;;;;;;;7.78;7.18;;;8.30;99.90;;;;;;5106373;28;20390;-86
2022/04/04 11:37:41;;;;;;;8.43;7.68;;;7.40;99.90;;;;;;5101608;28;20386;-85
2022/04/04 11:40:13;;;;;;;8.07;7.25;;;7.90;99.90;;;;;;5105967;28;20406;-86
2022/04/04 11:42:41;;;;;;;8.25;7.55;;;8.00;99.90;;;;;;5093222;28;20400;-86
2022/04/04 11:45:08;;;;;;;7.93;7.32;;;8.20;99.90;;;;;;5094527;28;20910;-85
2022/04/04 11:47:39;;;;;;;8.13;7.43;;;7.90;99.90;;;;;;5091411;28;20388;-84
2022/04/04 11:50:06;;;;;;;8.15;7.45;;;8.50;99.90;;;;;;5101792;28;20401;-86
2022/04/04 11:53:03;;;;;;;7.90;7.30;;;8.30;99.90;;;;;;5109378;28;20393;-85
2022/04/04 11:55:31;;;;;;;8.20;7.60;;;8.30;99.90;;;;;;5090240;28;20397;-86
2022/04/04 11:58:02;;;;;;;8.02;7.43;;;7.70;99.90;;;;;;5109118;28;20380;-87
2022/04/04 12:00:31;;;;;;;7.93;7.32;;;8.10;99.90;;;;;;5119165;28;20376;-86
2022/04/04 12:03:04;;;;;;;7.72;7.13;;;8.70;99.90;;;;;;5110879;28;20438;-86
2022/04/04 12:05:33;;;;;;;7.60;7.00;;;8.60;99.90;;;;;;5106648;28;20427;-86
2022/04/04 12:07:59;;;;;;;7.68;6.97;;;8.80;99.90;;;;;;5105321;28;20390;-86
2022/04/04 12:10:31;;;;;;;7.90;7.30;;;8.70;99.90;;;;;;5095348;28;20882;-86
2022/04/04 12:13:04;;;;;;;7.68;7.03;;;8.60;99.90;;;;;;5076671;28;20379;-85
2022/04/04 12:15:32;;;;;;;7.50;6.80;;;8.40;99.90;;;;;;5082873;28;20455;-86
2022/04/04 12:17:59;;;;;;;7.38;6.75;;;8.60;99.90;;;;;;5104304;28;20393;-86
2022/04/04 12:20:25;;;;;;;7.40;6.82;;;8.20;99.90;;;;;;5107407;28;20465;-85
2022/04/04 12:25:37;;;;;;;7.07;6.47;;;7.90;99.90;;;;;;5107818;28;20413;-86
2022/04/04 12:28:04;;;;;;;7.45;6.95;;;8.10;99.90;;;;;;5090642;28;20839;-86
2022/04/04 12:30:35;;;;;;;7.93;7.15;;;8.00;99.90;;;;;;5106612;28;20791;-86
2022/04/04 12:33:13;;;;;;;6.97;6.47;;;7.60;99.90;;;;;;5109120;28;20872;-86
2022/04/04 12:35:44;;;;;;;7.60;7.00;;;7.90;99.90;;;;;;5113115;28;20380;-86
2022/04/04 12:38:22;;;;;;;8.27;7.57;;;8.00;99.90;;;;;;5095777;28;20410;-85
2022/04/04 12:41:14;;;;;;;7.47;6.97;;;7.80;99.90;;;;;;5102982;28;20440;-86
2022/04/04 12:43:44;;;;;;;7.70;7.10;;;8.20;99.90;;;;;;5085887;28;20405;-85
2022/04/04 12:46:27;;;;;;;7.50;6.90;;;8.70;99.90;;;;;;5093231;28;20416;-87
2022/04/04 12:48:55;;;;;;;7.43;6.93;;;8.90;99.90;;;;;;5108280;28;20420;-85
2022/04/04 12:51:31;;;;;;;8.18;7.55;;;9.70;99.90;;;;;;5099907;28;20873;-86
2022/04/04 12:54:00;;;;;;;7.07;6.57;;;8.50;99.90;;;;;;5107744;28;20394;-86
2022/04/04 12:56:28;;;;;;;7.72;7.13;;;8.70;99.90;;;;;;5107381;28;20378;-86
2022/04/04 12:59:10;;;;;;;8.18;7.50;;;8.20;99.90;;;;;;5102214;28;20416;-85
2022/04/04 13:01:37;;;;;;;8.20;7.50;;;8.20;99.90;;;;;;5109349;28;20378;-86
2022/04/04 13:04:18;;;;;;;8.10;7.50;;;8.20;99.90;;;;;;5089520;28;20465;-85
2022/04/04 13:06:45;;;;;;;8.07;7.38;;;8.40;99.90;;;;;;5108113;28;20374;-85
2022/04/04 13:09:11;;;;;;;8.20;7.60;;;8.20;99.90;;;;;;5113038;28;20410;-86
2022/04/04 13:11:47;;;;;;;8.05;7.45;;;7.90;99.90;;;;;;5107297;28;20397;-85
2022/04/04 13:14:13;;;;;;;8.25;7.25;;;8.30;99.90;;;;;;5118664;28;20376;-87
2022/04/04 13:16:48;;;;;;;7.80;7.20;;;8.40;99.90;;;;;;5109482;28;20463;-87
2022/04/04 13:19:15;;;;;;;7.75;7.13;;;8.70;99.90;;;;;;5108150;28;20400;-85
2022/04/04 13:21:48;;;;;;;8.63;6.70;;;9.00;99.90;;;;;;5104251;28;20382;-87
2022/04/04 13:24:15;;;;;;;7.80;7.10;;;8.90;99.90;;;;;;5097452;28;20389;-87
2022/04/04 13:26:42;;;;;;;7.85;7.07;;;9.20;99.90;;;;;;5106240;28;20924;-86
2022/04/04 13:29:08;;;;;;;8.23;7.63;;;9.10;99.90;;;;;;5089270;28;20382;-86